createdAt,value
2022-11-29T00:01:16.328Z,7.90
2022-11-29T00:03:43.801Z,7.90
2022-11-29T00:06:14.728Z,7.90
2022-11-29T00:08:42.556Z,7.90
2022-11-29T00:11:40.237Z,7.90
2022-11-29T00:14:09.427Z,7.80
2022-11-29T00:16:37.083Z,7.80
2022-11-29T00:19:04.300Z,7.80
2022-11-29T00:21:31.228Z,7.90
2022-11-29T00:23:58.043Z,7.90
2022-11-29T00:26:24.919Z,7.90
2022-11-29T00:28:53.177Z,7.80
2022-11-29T00:31:32.080Z,7.90
2022-11-29T00:34:02.351Z,7.90
2022-11-29T00:36:29.863Z,7.90
2022-11-29T00:38:56.866Z,7.90
2022-11-29T00:41:23.843Z,7.90
2022-11-29T00:43:50.951Z,7.90
2022-11-29T00:46:18.025Z,7.90
2022-11-29T00:48:44.933Z,7.90
2022-11-29T00:51:11.982Z,7.90
2022-11-29T00:53:39.333Z,7.90
2022-11-29T00:56:06.945Z,7.90
2022-11-29T00:58:35.109Z,7.90
2022-11-29T01:01:02.096Z,7.90
2022-11-29T01:03:29.035Z,7.90
2022-11-29T01:06:04.213Z,7.90
2022-11-29T01:08:31.519Z,7.90
2022-11-29T01:11:06.669Z,7.90
2022-11-29T01:13:34.752Z,7.90
2022-11-29T01:16:01.852Z,7.90
2022-11-29T01:18:30.626Z,7.90
2022-11-29T01:21:04.184Z,7.90
2022-11-29T01:23:31.318Z,7.90
2022-11-29T01:28:58.976Z,7.90
2022-11-29T01:31:36.078Z,7.90
2022-11-29T01:34:05.303Z,7.90
2022-11-29T01:36:32.564Z,7.90
2022-11-29T01:39:01.268Z,7.90
2022-11-29T01:41:31.269Z,7.90
2022-11-29T01:44:53.991Z,7.90
2022-11-29T01:47:20.992Z,7.90
2022-11-29T01:49:49.960Z,7.80
2022-11-29T01:52:26.229Z,7.80
2022-11-29T01:54:58.312Z,7.80
2022-11-29T01:57:26.035Z,7.80
2022-11-29T01:59:57.798Z,7.80
2022-11-29T02:02:33.927Z,7.80
2022-11-29T02:05:02.590Z,7.80
2022-11-29T02:07:29.661Z,7.80
2022-11-29T02:09:56.765Z,7.80
2022-11-29T02:12:44.574Z,7.80
2022-11-29T02:16:05.392Z,7.90
2022-11-29T02:19:09.802Z,7.80
2022-11-29T02:21:49.195Z,7.80
2022-11-29T02:24:37.431Z,7.90
2022-11-29T02:27:50.154Z,7.90
2022-11-29T02:31:07.333Z,7.90
2022-11-29T02:34:01.888Z,7.90
2022-11-29T02:37:01.371Z,7.90
2022-11-29T02:39:52.205Z,7.90
2022-11-29T02:43:02.507Z,7.80
2022-11-29T02:45:58.733Z,7.80
2022-11-29T02:49:07.741Z,7.80
2022-11-29T02:51:43.002Z,7.80
2022-11-29T02:54:43.090Z,7.90
2022-11-29T02:57:29.565Z,7.90
2022-11-29T03:00:10.970Z,7.80
2022-11-29T03:03:11.601Z,7.80
2022-11-29T03:05:47.298Z,7.90
2022-11-29T03:08:35.564Z,7.80
2022-11-29T03:11:39.503Z,7.80
2022-11-29T03:14:24.689Z,7.80
2022-11-29T03:16:59.095Z,7.80
2022-11-29T03:20:06.763Z,7.80
2022-11-29T03:23:20.140Z,7.80
2022-11-29T03:26:03.540Z,7.80
2022-11-29T03:28:39.578Z,7.80
2022-11-29T03:31:29.066Z,7.80
2022-11-29T03:34:47.683Z,7.80
2022-11-29T03:37:48.492Z,7.80
2022-11-29T03:40:21.325Z,7.90
2022-11-29T03:43:17.382Z,7.90
2022-11-29T03:45:53.853Z,7.80
2022-11-29T03:48:53.326Z,7.90
2022-11-29T03:51:43.200Z,7.90
2022-11-29T03:54:13.218Z,7.90
2022-11-29T03:56:41.484Z,7.90
2022-11-29T03:59:56.365Z,7.80
2022-11-29T04:03:04.875Z,7.80
2022-11-29T04:06:17.973Z,7.80
2022-11-29T04:09:32.454Z,7.80
2022-11-29T04:12:38.121Z,7.80
2022-11-29T04:15:43.738Z,7.80
2022-11-29T04:18:33.048Z,7.80
2022-11-29T04:21:30.199Z,7.80
2022-11-29T04:24:38.761Z,7.80
2022-11-29T04:27:41.569Z,7.80
2022-11-29T04:30:33.738Z,7.80
2022-11-29T04:33:43.376Z,7.80
2022-11-29T04:36:49.157Z,7.80
2022-11-29T04:39:56.570Z,7.80
2022-11-29T04:43:03.085Z,7.80
2022-11-29T04:46:12.311Z,7.80
2022-11-29T04:49:14.807Z,7.80
2022-11-29T04:52:23.661Z,7.80
2022-11-29T04:55:29.290Z,7.80
2022-11-29T04:58:25.677Z,7.80
2022-11-29T05:01:39.170Z,7.80
2022-11-29T05:04:23.973Z,7.80
2022-11-29T05:07:17.492Z,7.80
2022-11-29T05:10:18.428Z,7.80
2022-11-29T05:12:52.069Z,7.80
2022-11-29T05:16:09.920Z,7.80
2022-11-29T05:19:41.627Z,7.80
2022-11-29T05:58:56.403Z,7.80
2022-11-29T06:01:53.883Z,7.80
2022-11-29T06:04:34.362Z,7.80
2022-11-29T06:07:44.699Z,7.80
2022-11-29T06:10:24.510Z,7.80
2022-11-29T06:13:15.282Z,7.80
2022-11-29T06:16:09.869Z,7.80
2022-11-29T06:19:02.077Z,7.80
2022-11-29T06:22:21.495Z,7.80
2022-11-29T06:25:47.162Z,7.80
2022-11-29T06:28:13.955Z,7.80
2022-11-29T06:31:24.864Z,7.80
2022-11-29T06:34:07.606Z,7.80
2022-11-29T06:36:38.380Z,7.80
2022-11-29T06:39:06.097Z,7.80
2022-11-29T06:41:33.477Z,7.80
2022-11-29T06:44:00.803Z,7.80
2022-11-29T06:46:45.536Z,7.90
2022-11-29T06:49:37.798Z,7.90
2022-11-29T06:52:58.838Z,7.80
2022-11-29T06:55:42.973Z,7.80
2022-11-29T06:58:50.935Z,7.90
2022-11-29T07:01:39.951Z,7.90
2022-11-29T07:04:46.382Z,7.90
2022-11-29T07:07:21.784Z,7.90
2022-11-29T07:09:51.701Z,7.80
2022-11-29T07:12:19.231Z,7.80
2022-11-29T07:14:48.250Z,7.80
2022-11-29T07:17:44.206Z,7.80
2022-11-29T07:21:01.279Z,7.80
2022-11-29T07:23:37.345Z,7.80
2022-11-29T07:26:29.466Z,7.80
2022-11-29T07:29:29.578Z,7.80
2022-11-29T07:32:29.617Z,7.80
2022-11-29T07:35:16.297Z,7.80
2022-11-29T07:38:18.647Z,7.80
2022-11-29T07:40:54.990Z,7.80
2022-11-29T07:44:03.327Z,7.90
2022-11-29T07:46:30.277Z,7.80
2022-11-29T07:48:57.185Z,7.90
2022-11-29T07:51:24.104Z,7.80
2022-11-29T07:53:51.174Z,7.90
2022-11-29T07:56:18.189Z,7.80
2022-11-29T07:58:45.177Z,7.90
2022-11-29T08:01:12.772Z,7.90
2022-11-29T08:03:41.860Z,7.80
2022-11-29T08:06:08.875Z,7.80
2022-11-29T08:08:42.371Z,7.90
2022-11-29T08:11:12.565Z,7.90
2022-11-29T08:13:39.673Z,7.90
2022-11-29T08:16:06.971Z,7.90
2022-11-29T08:18:33.848Z,7.90
2022-11-29T08:21:06.376Z,7.90
2022-11-29T08:23:33.433Z,7.90
2022-11-29T08:26:02.024Z,8.00
2022-11-29T08:28:30.564Z,8.00
2022-11-29T08:31:06.785Z,8.00
2022-11-29T08:33:38.447Z,8.00
2022-11-29T08:36:11.851Z,8.00
2022-11-29T08:38:39.095Z,8.00
2022-11-29T08:41:09.094Z,8.00
2022-11-29T08:43:36.478Z,8.00
2022-11-29T08:46:03.699Z,8.10
2022-11-29T08:48:30.663Z,8.00
2022-11-29T08:50:58.245Z,8.00
2022-11-29T08:53:44.744Z,8.00
2022-11-29T08:57:04.549Z,8.00
2022-11-29T08:59:01.963Z,8.10
2022-11-29T09:01:29.626Z,8.00
2022-11-29T09:03:59.777Z,8.00
2022-11-29T09:06:28.644Z,8.10
2022-11-29T09:08:56.761Z,8.00
2022-11-29T09:11:25.279Z,8.10
2022-11-29T09:13:55.226Z,8.10
2022-11-29T09:16:25.535Z,8.20
2022-11-29T09:18:55.224Z,8.20
2022-11-29T09:21:24.955Z,8.20
2022-11-29T09:23:59.311Z,8.20
2022-11-29T09:26:32.091Z,8.30
2022-11-29T09:29:02.741Z,8.30
2022-11-29T09:31:32.288Z,8.30
2022-11-29T09:33:59.734Z,8.30
2022-11-29T09:36:29.473Z,8.30
2022-11-29T09:38:57.489Z,8.30
2022-11-29T09:41:53.615Z,8.30
2022-11-29T09:44:59.417Z,8.30
2022-11-29T09:48:08.766Z,8.40
2022-11-29T09:51:06.505Z,8.40
2022-11-29T09:53:54.516Z,8.50
2022-11-29T09:56:45.597Z,8.50
2022-11-29T09:59:22.917Z,8.60
2022-11-29T10:02:33.600Z,8.60
2022-11-29T10:08:41.432Z,8.70
2022-11-29T10:11:29.978Z,8.80
2022-11-29T10:14:09.390Z,8.90
2022-11-29T10:16:56.578Z,8.90
2022-11-29T10:19:41.302Z,9.00
2022-11-29T10:22:19.482Z,9.00
2022-11-29T10:24:51.850Z,9.00
2022-11-29T10:27:23.979Z,9.10
2022-11-29T10:29:51.810Z,9.10
2022-11-29T10:32:21.723Z,9.20
2022-11-29T10:34:52.362Z,9.20
2022-11-29T10:37:25.285Z,9.30
2022-11-29T10:40:00.705Z,9.30
2022-11-29T10:42:48.081Z,9.40
2022-11-29T10:45:20.998Z,9.40
2022-11-29T10:47:49.612Z,9.40
2022-11-29T10:50:25.413Z,9.30
2022-11-29T10:53:00.873Z,9.30
2022-11-29T10:55:47.560Z,9.30
2022-11-29T10:58:28.381Z,9.30
2022-11-29T11:01:07.074Z,9.20
2022-11-29T11:04:00.657Z,9.20
2022-11-29T11:06:52.410Z,9.20
2022-11-29T11:09:33.751Z,9.10
2022-11-29T11:12:25.807Z,9.20
2022-11-29T11:15:12.319Z,9.20
2022-11-29T11:17:42.329Z,9.20
2022-11-29T11:20:24.146Z,9.10
2022-11-29T11:23:19.921Z,9.20
2022-11-29T11:25:50.133Z,9.10
2022-11-29T11:28:29.582Z,9.10
2022-11-29T11:31:01.723Z,9.10
2022-11-29T11:33:35.464Z,9.10
2022-11-29T11:36:35.525Z,9.00
2022-11-29T11:39:19.354Z,9.00
2022-11-29T11:42:05.832Z,9.00
2022-11-29T11:44:50.237Z,9.10
2022-11-29T11:47:21.727Z,9.10
2022-11-29T11:50:21.256Z,9.00
2022-11-29T11:52:54.099Z,9.00
2022-11-29T11:55:40.720Z,9.00
2022-11-29T11:58:17.391Z,8.90
2022-11-29T12:01:04.088Z,8.90
2022-11-29T12:04:03.485Z,8.90
2022-11-29T12:06:51.724Z,8.90
2022-11-29T12:09:40.841Z,8.90
2022-11-29T12:12:26.212Z,8.90
2022-11-29T12:15:07.615Z,8.80
2022-11-29T12:17:46.735Z,8.80
2022-11-29T12:20:42.477Z,8.90
2022-11-29T12:23:55.644Z,8.90
2022-11-29T12:26:57.105Z,8.90
2022-11-29T12:29:28.850Z,8.90
2022-11-29T12:32:33.703Z,8.90
2022-11-29T12:35:31.607Z,8.80
2022-11-29T12:38:21.167Z,8.90
2022-11-29T12:40:57.098Z,8.90
2022-11-29T12:44:07.706Z,8.90
2022-11-29T12:46:35.589Z,8.90
2022-11-29T12:49:32.875Z,8.80
2022-11-29T12:52:34.538Z,8.80
2022-11-29T12:55:18.406Z,8.70
2022-11-29T12:57:54.222Z,8.70
2022-11-29T13:00:21.784Z,8.70
2022-11-29T13:03:17.730Z,8.70
2022-11-29T13:05:59.605Z,8.60
2022-11-29T13:09:05.330Z,8.60
2022-11-29T13:11:38.286Z,8.60
2022-11-29T13:17:48.540Z,8.40
2022-11-29T13:20:33.419Z,8.40
2022-11-29T13:24:07.765Z,8.40
2022-11-29T13:26:32.660Z,8.40
2022-11-29T13:29:00.769Z,8.30
2022-11-29T13:31:28.518Z,8.40
2022-11-29T13:34:44.973Z,8.30
2022-11-29T13:37:43.648Z,8.30
2022-11-29T13:40:37.156Z,8.20
2022-11-29T13:43:22.547Z,8.20
2022-11-29T13:46:13.571Z,8.20
2022-11-29T13:48:49.519Z,8.20
2022-11-29T13:51:41.395Z,8.20
2022-11-29T13:54:29.191Z,8.20
2022-11-29T13:57:09.798Z,8.20
2022-11-29T13:59:45.753Z,8.20
2022-11-29T14:02:30.558Z,8.20
2022-11-29T14:04:57.889Z,8.20
2022-11-29T14:07:24.970Z,8.20
2022-11-29T14:10:05.934Z,8.20
2022-11-29T14:12:50.465Z,8.10
2022-11-29T14:15:32.734Z,8.20
2022-11-29T14:18:02.991Z,8.10
2022-11-29T14:20:56.632Z,8.10
2022-11-29T14:23:41.798Z,8.10
2022-11-29T14:26:17.449Z,8.10
2022-11-29T14:28:44.401Z,8.10
2022-11-29T14:31:11.850Z,8.10
2022-11-29T14:34:16.399Z,8.10
2022-11-29T14:37:16.047Z,8.10
2022-11-29T14:39:47.128Z,8.10
2022-11-29T14:42:23.217Z,8.10
2022-11-29T14:44:52.493Z,8.10
2022-11-29T14:47:29.889Z,8.10
2022-11-29T14:49:58.672Z,8.10
2022-11-29T14:52:39.601Z,8.00
2022-11-29T14:55:17.022Z,8.10
2022-11-29T14:58:17.519Z,8.10
2022-11-29T15:01:02.807Z,8.10
2022-11-29T15:03:44.332Z,8.10
2022-11-29T15:06:25.154Z,8.10
2022-11-29T15:09:04.850Z,8.10
2022-11-29T15:11:56.248Z,8.10
2022-11-29T15:14:54.423Z,8.00
2022-11-29T15:18:01.055Z,8.10
2022-11-29T15:20:35.252Z,8.00
2022-11-29T15:23:06.231Z,8.10
2022-11-29T15:25:33.994Z,8.10
2022-11-29T15:28:04.082Z,8.00
2022-11-29T15:30:42.634Z,8.00
2022-11-29T15:33:25.306Z,8.10
2022-11-29T15:35:57.209Z,8.10
2022-11-29T15:38:26.276Z,8.10
2022-11-29T15:40:55.963Z,8.10
2022-11-29T15:43:34.997Z,8.10
2022-11-29T15:46:03.567Z,8.10
2022-11-29T15:48:33.937Z,8.10
2022-11-29T15:51:01.918Z,8.10
2022-11-29T15:53:49.871Z,8.10
2022-11-29T15:56:49.403Z,8.10
2022-11-29T15:59:26.077Z,8.00
2022-11-29T16:01:58.166Z,8.00
2022-11-29T16:04:27.363Z,8.10
2022-11-29T16:06:56.430Z,8.00
2022-11-29T16:09:32.868Z,8.10
2022-11-29T16:12:02.431Z,8.00
2022-11-29T16:14:33.146Z,8.10
2022-11-29T16:17:03.393Z,8.00
2022-11-29T16:19:34.887Z,8.00
2022-11-29T16:22:08.029Z,8.10
2022-11-29T16:24:36.864Z,8.00
2022-11-29T16:27:05.991Z,8.00
2022-11-29T16:29:45.262Z,8.00
2022-11-29T16:32:29.113Z,8.00
2022-11-29T16:35:04.553Z,8.00
2022-11-29T16:37:45.144Z,8.00
2022-11-29T16:40:30.491Z,8.00
2022-11-29T16:43:44.819Z,8.00
2022-11-29T16:46:41.496Z,8.00
2022-11-29T16:49:33.481Z,8.10
2022-11-29T16:52:01.712Z,8.10
2022-11-29T16:54:35.001Z,8.00
2022-11-29T16:57:08.044Z,8.10
2022-11-29T16:59:37.601Z,8.00
2022-11-29T17:02:13.834Z,8.00
2022-11-29T17:04:41.734Z,8.10
2022-11-29T17:07:35.551Z,8.00
2022-11-29T17:10:04.471Z,8.00
2022-11-29T17:12:31.691Z,8.00
2022-11-29T17:14:58.577Z,8.00
2022-11-29T17:17:25.911Z,8.00
2022-11-29T17:19:53.294Z,8.00
2022-11-29T17:22:20.214Z,8.00
2022-11-29T17:24:48.468Z,8.00
2022-11-29T17:27:15.787Z,8.10
2022-11-29T17:29:42.804Z,8.10
2022-11-29T17:32:09.977Z,8.00
2022-11-29T17:34:37.595Z,8.00
2022-11-29T17:37:04.746Z,8.00
2022-11-29T17:39:32.552Z,8.00
2022-11-29T17:41:59.625Z,8.00
2022-11-29T17:44:26.594Z,8.00
2022-11-29T17:46:55.816Z,8.00
2022-11-29T17:49:22.871Z,8.00
2022-11-29T17:51:52.670Z,8.00
2022-11-29T17:54:23.783Z,8.00
2022-11-29T17:56:51.226Z,8.00
2022-11-29T17:59:19.735Z,8.00
2022-11-29T18:01:50.037Z,8.00
2022-11-29T18:04:17.317Z,8.00
2022-11-29T18:06:49.681Z,8.10
2022-11-29T18:09:17.939Z,8.10
2022-11-29T18:11:49.315Z,8.10
2022-11-29T18:14:28.306Z,8.00
2022-11-29T18:16:55.505Z,8.00
2022-11-29T18:19:24.482Z,8.00
2022-11-29T18:21:52.998Z,8.00
2022-11-29T18:24:20.463Z,8.00
2022-11-29T18:26:47.601Z,8.00
2022-11-29T18:29:14.632Z,8.00
2022-11-29T18:31:44.861Z,8.00
2022-11-29T18:34:13.611Z,8.00
2022-11-29T18:36:43.251Z,8.00
2022-11-29T18:39:14.165Z,8.00
2022-11-29T18:41:42.890Z,8.00
2022-11-29T18:44:12.235Z,7.90
2022-11-29T18:46:41.673Z,7.90
2022-11-29T18:49:10.229Z,8.00
2022-11-29T18:51:38.714Z,7.90
2022-11-29T18:54:07.027Z,7.90
2022-11-29T18:56:37.414Z,7.90
2022-11-29T18:59:17.357Z,7.90
2022-11-29T19:01:47.786Z,7.90
2022-11-29T19:04:17.722Z,7.90
2022-11-29T19:06:46.616Z,7.90
2022-11-29T19:09:21.258Z,7.90
2022-11-29T19:11:49.977Z,8.00
2022-11-29T19:14:18.776Z,8.00
2022-11-29T19:16:49.714Z,7.90
2022-11-29T19:19:18.853Z,7.90
2022-11-29T19:21:46.266Z,7.90
2022-11-29T19:24:18.107Z,7.90
2022-11-29T19:26:46.956Z,7.90
2022-11-29T19:29:14.639Z,7.90
2022-11-29T19:31:43.999Z,7.90
2022-11-29T19:34:12.743Z,7.90
2022-11-29T19:36:43.664Z,7.90
2022-11-29T19:39:13.553Z,7.90
2022-11-29T19:41:42.555Z,7.90
2022-11-29T19:44:10.761Z,7.90
2022-11-29T19:46:40.656Z,7.90
2022-11-29T19:49:09.671Z,7.90
2022-11-29T19:51:37.636Z,7.90
2022-11-29T19:54:06.770Z,7.90
2022-11-29T19:56:34.963Z,7.80
2022-11-29T19:59:02.615Z,7.80
2022-11-29T20:01:40.111Z,7.80
2022-11-29T20:04:10.505Z,7.90
2022-11-29T20:06:38.795Z,7.80
2022-11-29T20:09:07.950Z,7.80
2022-11-29T20:11:35.411Z,7.80
2022-11-29T20:14:05.030Z,7.80
2022-11-29T20:16:38.062Z,7.80
2022-11-29T20:19:13.226Z,7.80
2022-11-29T20:21:45.868Z,7.80
2022-11-29T20:24:14.637Z,7.80
2022-11-29T20:26:49.767Z,7.80
2022-11-29T20:29:19.465Z,7.80
2022-11-29T20:31:50.729Z,7.80
2022-11-29T20:34:24.684Z,7.70
2022-11-29T20:37:36.311Z,7.70
2022-11-29T20:40:07.636Z,7.70
2022-11-29T20:43:04.671Z,7.80
2022-11-29T20:45:32.193Z,7.70
2022-11-29T20:48:09.622Z,7.80
2022-11-29T20:50:37.097Z,7.70
2022-11-29T20:53:13.026Z,7.70
2022-11-29T20:55:46.298Z,7.70
2022-11-29T20:58:16.284Z,7.70
2022-11-29T21:00:43.605Z,7.70
2022-11-29T21:03:17.963Z,7.70
2022-11-29T21:05:46.646Z,7.70
2022-11-29T21:08:14.946Z,7.80
2022-11-29T21:10:42.570Z,7.70
2022-11-29T21:13:13.872Z,7.70
2022-11-29T21:15:41.700Z,7.70
2022-11-29T21:18:18.716Z,7.70
2022-11-29T21:20:53.466Z,7.70
2022-11-29T21:23:34.597Z,7.70
2022-11-29T21:26:23.143Z,7.70
2022-11-29T21:29:00.084Z,7.70
2022-11-29T21:31:27.706Z,7.70
2022-11-29T21:33:55.998Z,7.70
2022-11-29T21:36:23.031Z,7.70
2022-11-29T21:38:54.873Z,7.70
2022-11-29T21:41:22.807Z,7.70
2022-11-29T21:44:05.981Z,7.70
2022-11-29T21:46:34.620Z,7.70
2022-11-29T21:49:01.808Z,7.70
2022-11-29T21:54:19.807Z,7.70
2022-11-29T21:56:47.964Z,7.70
2022-11-29T21:59:15.105Z,7.70
2022-11-29T22:01:42.218Z,7.70
2022-11-29T22:04:09.664Z,7.70
2022-11-29T22:06:37.196Z,7.70
2022-11-29T22:09:05.308Z,7.70
2022-11-29T22:11:32.886Z,7.70
2022-11-29T22:14:14.674Z,7.70
2022-11-29T22:16:50.000Z,7.70
2022-11-29T22:19:19.301Z,7.70
2022-11-29T22:21:48.954Z,7.70
2022-11-29T22:24:17.973Z,7.70
2022-11-29T22:26:45.738Z,7.70
2022-11-29T22:29:14.777Z,7.70
2022-11-29T22:31:43.496Z,7.70
2022-11-29T22:34:10.868Z,7.70
2022-11-29T22:36:38.966Z,7.70
2022-11-29T22:39:07.615Z,7.70
2022-11-29T22:41:35.673Z,7.60
2022-11-29T22:44:02.961Z,7.70
2022-11-29T22:46:31.357Z,7.70
2022-11-29T22:49:02.769Z,7.70
2022-11-29T22:51:32.043Z,7.70
2022-11-29T22:54:03.086Z,7.70
2022-11-29T22:56:32.591Z,7.70
2022-11-29T22:58:59.621Z,7.60
2022-11-29T23:01:29.130Z,7.60
2022-11-29T23:04:00.715Z,7.70
2022-11-29T23:06:36.592Z,7.60
2022-11-29T23:09:12.022Z,7.60
2022-11-29T23:11:38.998Z,7.60
2022-11-29T23:14:06.009Z,7.60
2022-11-29T23:16:33.623Z,7.60
2022-11-29T23:19:01.366Z,7.60
2022-11-29T23:21:34.206Z,7.70
2022-11-29T23:24:02.725Z,7.70
2022-11-29T23:26:40.476Z,7.70
2022-11-29T23:29:10.248Z,7.60
2022-11-29T23:31:38.717Z,7.60
2022-11-29T23:34:09.554Z,7.60
2022-11-29T23:36:36.585Z,7.70
2022-11-29T23:39:03.927Z,7.70
2022-11-29T23:41:30.911Z,7.60
2022-11-29T23:43:59.748Z,7.60
2022-11-29T23:46:26.961Z,7.60
2022-11-29T23:48:54.079Z,7.60
2022-11-29T23:51:21.224Z,7.70
2022-11-29T23:53:52.487Z,7.60
2022-11-29T23:56:20.308Z,7.60
2022-11-29T23:58:47.759Z,7.60
